createdAt,value
2023-02-07T00:02:18.861Z,20.17
2023-02-07T00:04:45.282Z,23.65
2023-02-07T00:07:11.717Z,25.30
2023-02-07T00:09:38.132Z,24.27
2023-02-07T00:12:05.016Z,17.52
2023-02-07T00:14:31.377Z,21.95
2023-02-07T00:16:58.049Z,23.60
2023-02-07T00:19:24.439Z,20.40
2023-02-07T00:21:50.830Z,25.35
2023-02-07T00:24:17.176Z,25.27
2023-02-07T00:26:44.049Z,21.67
2023-02-07T00:29:13.827Z,22.27
2023-02-07T00:31:40.528Z,17.40
2023-02-07T00:34:07.769Z,23.55
2023-02-07T00:36:34.977Z,21.45
2023-02-07T00:39:03.489Z,27.48
2023-02-07T00:41:30.623Z,33.80
2023-02-07T00:43:57.013Z,20.67
2023-02-07T00:46:23.989Z,20.67
2023-02-07T00:48:50.929Z,21.33
2023-02-07T00:51:17.395Z,19.50
2023-02-07T00:53:44.850Z,20.88
2023-02-07T00:56:11.714Z,16.23
2023-02-07T00:58:38.125Z,19.05
2023-02-07T01:01:05.257Z,16.92
2023-02-07T01:03:31.879Z,21.33
2023-02-07T01:05:58.317Z,20.95
2023-02-07T01:08:24.672Z,14.20
2023-02-07T01:10:51.071Z,26.65
2023-02-07T01:13:17.616Z,24.20
2023-02-07T01:15:45.756Z,26.52
2023-02-07T01:18:12.506Z,18.85
2023-02-07T01:20:39.019Z,26.23
2023-02-07T01:23:05.905Z,22.02
2023-02-07T01:25:32.502Z,23.35
2023-02-07T01:27:58.926Z,22.05
2023-02-07T01:30:25.336Z,24.15
2023-02-07T01:32:51.772Z,27.67
2023-02-07T01:35:18.244Z,17.38
2023-02-07T01:37:44.635Z,21.02
2023-02-07T01:40:11.859Z,24.33
2023-02-07T01:42:38.426Z,21.58
2023-02-07T01:45:07.437Z,24.83
2023-02-07T01:47:34.224Z,27.20
2023-02-07T01:50:00.971Z,25.33
2023-02-07T01:52:38.142Z,29.70
2023-02-07T01:55:07.728Z,25.85
2023-02-07T01:57:34.122Z,30.45
2023-02-07T02:00:00.951Z,21.92
2023-02-07T02:02:29.042Z,21.95
2023-02-07T02:04:55.759Z,25.75
2023-02-07T02:07:22.960Z,35.33
2023-02-07T02:09:49.455Z,27.50
2023-02-07T02:12:15.924Z,20.13
2023-02-07T02:14:49.062Z,27.08
2023-02-07T02:17:20.457Z,26.88
2023-02-07T02:20:02.129Z,20.52
2023-02-07T02:22:39.723Z,32.28
2023-02-07T02:25:17.191Z,21.88
2023-02-07T02:28:02.479Z,24.30
2023-02-07T02:30:47.749Z,29.27
2023-02-07T02:33:14.389Z,23.02
2023-02-07T02:35:43.907Z,26.80
2023-02-07T02:38:13.686Z,24.50
2023-02-07T02:40:50.964Z,21.48
2023-02-07T02:43:21.619Z,26.38
2023-02-07T02:45:53.248Z,23.15
2023-02-07T02:48:19.726Z,27.73
2023-02-07T02:50:47.099Z,29.23
2023-02-07T02:53:13.798Z,26.42
2023-02-07T02:55:43.145Z,23.17
2023-02-07T02:58:20.192Z,36.90
2023-02-07T03:00:59.122Z,25.33
2023-02-07T03:03:44.756Z,22.05
2023-02-07T03:06:29.807Z,31.30
2023-02-07T03:09:15.005Z,20.38
2023-02-07T03:12:04.368Z,32.72
2023-02-07T03:14:33.964Z,25.25
2023-02-07T03:17:12.677Z,31.83
2023-02-07T03:19:41.425Z,24.70
2023-02-07T03:22:11.200Z,25.17
2023-02-07T03:24:39.247Z,18.83
2023-02-07T03:27:07.166Z,25.35
2023-02-07T03:29:35.689Z,34.92
2023-02-07T03:32:03.384Z,24.60
2023-02-07T03:34:34.388Z,20.63
2023-02-07T03:37:04.911Z,29.17
2023-02-07T03:39:31.364Z,32.00
2023-02-07T03:42:27.148Z,41.72
2023-02-07T03:47:20.152Z,39.45
2023-02-07T03:49:46.633Z,40.10
2023-02-07T03:52:13.045Z,45.47
2023-02-07T03:54:39.448Z,50.55
2023-02-07T03:57:05.815Z,47.97
2023-02-07T03:59:32.260Z,44.45
2023-02-07T04:01:58.652Z,38.92
2023-02-07T04:04:25.207Z,53.97
2023-02-07T04:06:51.677Z,49.13
2023-02-07T04:09:18.154Z,32.92
2023-02-07T04:11:44.513Z,49.80
2023-02-07T04:14:10.909Z,41.28
2023-02-07T04:16:37.357Z,44.25
2023-02-07T04:19:03.776Z,47.92
2023-02-07T04:21:30.228Z,51.25
2023-02-07T04:23:56.620Z,49.58
2023-02-07T04:26:23.007Z,44.70
2023-02-07T04:28:49.366Z,43.40
2023-02-07T04:31:15.745Z,39.95
2023-02-07T04:33:42.156Z,37.92
2023-02-07T04:36:08.630Z,35.28
2023-02-07T04:38:35.106Z,36.20
2023-02-07T04:41:05.519Z,41.75
2023-02-07T04:43:32.841Z,36.38
2023-02-07T04:45:59.671Z,41.38
2023-02-07T04:48:26.433Z,45.40
2023-02-07T04:50:52.885Z,42.13
2023-02-07T04:53:19.272Z,53.83
2023-02-07T04:55:49.482Z,48.97
2023-02-07T04:58:15.965Z,43.92
2023-02-07T05:00:42.581Z,43.50
2023-02-07T05:03:09.089Z,41.30
2023-02-07T05:05:38.157Z,39.10
2023-02-07T05:08:04.906Z,50.63
2023-02-07T05:10:31.363Z,42.35
2023-02-07T05:12:57.777Z,49.10
2023-02-07T05:15:24.655Z,43.63
2023-02-07T05:17:52.362Z,61.90
2023-02-07T05:20:19.781Z,48.83
2023-02-07T05:22:46.266Z,48.80
2023-02-07T05:25:12.677Z,44.03
2023-02-07T05:27:39.142Z,50.42
2023-02-07T05:30:05.929Z,53.45
2023-02-07T05:32:51.183Z,48.05
2023-02-07T05:35:17.581Z,49.50
2023-02-07T05:37:43.975Z,47.42
2023-02-07T05:40:10.552Z,54.15
2023-02-07T05:42:37.081Z,50.78
2023-02-07T05:45:03.591Z,48.72
2023-02-07T05:47:29.979Z,52.00
2023-02-07T05:49:56.516Z,42.72
2023-02-07T05:52:23.336Z,47.08
2023-02-07T05:54:49.975Z,52.22
2023-02-07T05:57:16.474Z,46.50
2023-02-07T05:59:42.902Z,46.03
2023-02-07T06:02:09.327Z,54.50
2023-02-07T06:04:36.164Z,49.75
2023-02-07T06:07:02.583Z,43.80
2023-02-07T06:09:28.981Z,51.97
2023-02-07T06:11:56.278Z,59.85
2023-02-07T06:14:23.533Z,60.55
2023-02-07T06:16:49.891Z,58.25
2023-02-07T06:19:16.291Z,61.33
2023-02-07T06:21:46.739Z,77.30
2023-02-07T06:24:13.466Z,66.18
2023-02-07T06:26:39.894Z,68.20
2023-02-07T06:29:06.272Z,55.45
2023-02-07T06:31:32.801Z,52.28
2023-02-07T06:33:59.263Z,61.50
2023-02-07T06:36:25.646Z,65.05
2023-02-07T06:38:55.535Z,68.25
2023-02-07T06:41:22.284Z,63.75
2023-02-07T06:43:49.092Z,59.00
2023-02-07T06:46:15.563Z,62.42
2023-02-07T06:48:41.980Z,68.78
2023-02-07T06:51:08.414Z,66.32
2023-02-07T06:53:34.838Z,73.93
2023-02-07T06:56:01.261Z,66.78
2023-02-07T06:58:27.593Z,64.85
2023-02-07T07:00:53.986Z,66.43
2023-02-07T07:03:20.413Z,60.53
2023-02-07T07:05:46.800Z,49.47
2023-02-07T07:08:15.441Z,67.35
2023-02-07T07:10:41.838Z,62.63
2023-02-07T07:13:08.228Z,58.53
2023-02-07T07:15:34.614Z,69.22
2023-02-07T07:18:01.183Z,71.97
2023-02-07T07:20:27.649Z,78.53
2023-02-07T07:22:54.014Z,69.47
2023-02-07T07:25:20.486Z,69.80
2023-02-07T07:27:46.944Z,76.35
2023-02-07T07:30:13.839Z,88.97
2023-02-07T07:32:40.226Z,74.60
2023-02-07T07:35:07.017Z,65.32
2023-02-07T07:37:33.630Z,66.05
2023-02-07T07:40:00.169Z,68.60
2023-02-07T07:42:26.590Z,64.88
2023-02-07T07:44:53.054Z,56.50
2023-02-07T07:47:19.414Z,66.53
2023-02-07T07:49:47.123Z,73.68
2023-02-07T07:52:13.868Z,72.53
2023-02-07T07:54:40.355Z,72.35
2023-02-07T07:57:06.766Z,66.40
2023-02-07T07:59:33.221Z,73.63
2023-02-07T08:01:59.583Z,92.85
2023-02-07T08:04:25.941Z,75.78
2023-02-07T08:06:52.388Z,79.97
2023-02-07T08:09:18.784Z,76.82
2023-02-07T08:11:45.426Z,81.72
2023-02-07T08:14:11.789Z,78.60
2023-02-07T08:16:38.232Z,89.75
2023-02-07T08:19:04.781Z,80.13
2023-02-07T08:21:32.024Z,80.65
2023-02-07T08:23:58.407Z,92.97
2023-02-07T08:26:25.021Z,81.32
2023-02-07T08:28:52.419Z,88.72
2023-02-07T08:31:18.897Z,83.25
2023-02-07T08:33:45.393Z,119.82
2023-02-07T08:36:14.856Z,94.32
2023-02-07T08:38:41.238Z,95.07
2023-02-07T08:41:07.662Z,95.03
2023-02-07T08:43:34.095Z,94.85
2023-02-07T08:46:00.768Z,93.25
2023-02-07T08:48:27.413Z,94.57
2023-02-07T08:50:53.810Z,104.20
2023-02-07T08:53:20.181Z,119.72
2023-02-07T08:55:46.685Z,95.00
2023-02-07T08:58:13.081Z,86.70
2023-02-07T09:00:40.003Z,85.28
2023-02-07T09:03:06.595Z,85.65
2023-02-07T09:05:33.696Z,75.28
2023-02-07T09:08:01.069Z,71.45
2023-02-07T09:10:27.519Z,84.47
2023-02-07T09:12:53.911Z,69.20
2023-02-07T09:15:20.494Z,66.38
2023-02-07T09:17:47.047Z,61.67
2023-02-07T09:20:13.460Z,60.20
2023-02-07T09:22:58.518Z,63.70
2023-02-07T09:25:25.151Z,54.47
2023-02-07T09:27:51.622Z,59.97
2023-02-07T09:30:18.309Z,55.70
2023-02-07T09:32:44.728Z,60.78
2023-02-07T09:35:11.189Z,53.92
2023-02-07T09:37:48.756Z,44.92
2023-02-07T09:40:19.092Z,38.80
2023-02-07T09:42:51.243Z,44.08
2023-02-07T09:45:20.057Z,37.10
2023-02-07T09:47:48.918Z,42.35
2023-02-07T09:50:19.590Z,38.05
2023-02-07T09:52:50.588Z,38.90
2023-02-07T09:55:35.894Z,39.53
2023-02-07T09:58:06.849Z,34.90
2023-02-07T10:00:34.657Z,36.88
2023-02-07T10:03:06.026Z,33.97
2023-02-07T10:05:51.065Z,33.92
2023-02-07T10:08:18.720Z,37.40
2023-02-07T10:11:08.532Z,38.38
2023-02-07T10:13:41.007Z,41.78
2023-02-07T10:16:39.969Z,44.88
2023-02-07T10:19:12.080Z,34.80
2023-02-07T10:21:38.400Z,38.95
2023-02-07T10:24:08.239Z,42.05
2023-02-07T10:26:42.332Z,45.97
2023-02-07T10:29:14.897Z,42.42
2023-02-07T10:31:44.269Z,41.40
2023-02-07T10:34:14.658Z,41.40
2023-02-07T10:36:45.615Z,41.15
2023-02-07T10:39:22.074Z,48.25
2023-02-07T10:41:48.474Z,42.63
2023-02-07T10:44:17.993Z,38.50
2023-02-07T10:46:45.475Z,29.85
2023-02-07T10:49:24.623Z,34.10
2023-02-07T10:51:52.204Z,31.55
2023-02-07T10:54:24.414Z,34.80
2023-02-07T10:56:52.869Z,32.42
2023-02-07T10:59:30.218Z,28.08
2023-02-07T11:01:56.755Z,28.45
2023-02-07T11:04:43.906Z,28.33
2023-02-07T11:07:14.340Z,35.95
2023-02-07T11:09:42.013Z,35.17
2023-02-07T11:12:28.632Z,29.92
2023-02-07T11:15:01.938Z,30.27
2023-02-07T11:17:28.828Z,31.52
2023-02-07T11:19:55.407Z,29.42
2023-02-07T11:22:23.128Z,30.00
2023-02-07T11:25:03.188Z,27.02
2023-02-07T11:27:35.825Z,31.30
2023-02-07T11:30:09.816Z,32.63
2023-02-07T11:32:38.357Z,30.05
2023-02-07T11:35:08.170Z,31.20
2023-02-07T11:37:36.150Z,24.23
2023-02-07T11:40:21.473Z,31.58
2023-02-07T11:42:48.497Z,20.92
2023-02-07T11:45:16.822Z,28.30
2023-02-07T11:47:44.826Z,25.17
2023-02-07T11:50:18.443Z,24.35
2023-02-07T11:52:49.907Z,24.08
2023-02-07T11:55:20.876Z,20.70
2023-02-07T11:57:47.294Z,27.50
2023-02-07T12:00:19.900Z,23.50
2023-02-07T12:02:50.102Z,23.42
2023-02-07T12:05:19.348Z,31.52
2023-02-07T12:07:48.438Z,22.25
2023-02-07T12:10:18.947Z,24.30
2023-02-07T12:12:47.797Z,22.70
2023-02-07T12:15:43.185Z,22.92
2023-02-07T12:18:24.110Z,14.88
2023-02-07T12:21:10.717Z,15.88
2023-02-07T12:23:54.236Z,17.55
2023-02-07T12:26:29.839Z,19.67
2023-02-07T12:29:18.492Z,31.52
2023-02-07T12:31:49.659Z,29.73
2023-02-07T12:34:41.791Z,29.92
2023-02-07T12:37:20.386Z,24.52
2023-02-07T12:40:06.987Z,26.08
2023-02-07T12:42:45.117Z,24.02
2023-02-07T12:45:23.137Z,24.88
2023-02-07T12:47:49.517Z,24.50
2023-02-07T12:50:15.831Z,25.20
2023-02-07T12:53:05.555Z,30.10
2023-02-07T12:55:48.288Z,33.33
2023-02-07T12:58:31.061Z,32.95
2023-02-07T13:01:07.580Z,28.63
2023-02-07T13:03:33.901Z,26.92
2023-02-07T13:06:23.004Z,29.73
2023-02-07T13:09:09.929Z,26.33
2023-02-07T13:11:39.372Z,30.98
2023-02-07T13:14:18.116Z,33.13
2023-02-07T13:16:44.582Z,32.55
2023-02-07T13:19:22.922Z,33.28
2023-02-07T13:22:02.784Z,33.58
2023-02-07T13:24:30.120Z,36.78
2023-02-07T13:27:03.624Z,43.92
2023-02-07T13:29:31.846Z,39.22
2023-02-07T13:32:00.457Z,39.88
2023-02-07T13:34:37.243Z,38.00
2023-02-07T13:37:16.132Z,36.72
2023-02-07T13:39:49.717Z,36.85
2023-02-07T13:42:36.291Z,36.67
2023-02-07T13:45:21.203Z,33.40
2023-02-07T13:47:53.512Z,28.08
2023-02-07T13:50:40.671Z,32.70
2023-02-07T13:53:22.709Z,23.70
2023-02-07T13:55:49.356Z,31.13
2023-02-07T13:58:52.763Z,23.02
2023-02-07T14:01:24.878Z,26.30
2023-02-07T14:04:00.296Z,27.83
2023-02-07T14:06:28.004Z,24.10
2023-02-07T14:09:03.725Z,24.10
2023-02-07T14:11:33.947Z,20.85
2023-02-07T14:14:12.342Z,19.98
2023-02-07T14:16:58.391Z,20.15
2023-02-07T14:19:40.339Z,17.55
2023-02-07T14:22:25.551Z,23.00
2023-02-07T14:25:12.300Z,22.08
2023-02-07T14:27:42.831Z,21.30
2023-02-07T14:30:12.392Z,22.98
2023-02-07T14:32:57.713Z,19.88
2023-02-07T14:35:27.153Z,16.33
2023-02-07T14:37:56.458Z,20.02
2023-02-07T14:40:24.015Z,24.13
2023-02-07T14:42:55.349Z,22.25
2023-02-07T14:45:22.284Z,25.27
2023-02-07T14:47:49.093Z,27.63
2023-02-07T14:50:19.185Z,29.17
2023-02-07T14:52:45.886Z,28.42
2023-02-07T14:55:15.465Z,31.45
2023-02-07T14:57:48.042Z,27.50
2023-02-07T15:00:14.399Z,27.83
2023-02-07T15:02:42.820Z,35.13
2023-02-07T15:05:17.889Z,30.67
2023-02-07T15:07:47.105Z,31.20
2023-02-07T15:10:14.547Z,32.60
2023-02-07T15:12:43.521Z,37.92
2023-02-07T15:15:17.129Z,31.48
2023-02-07T15:17:44.642Z,30.90
2023-02-07T15:20:14.781Z,27.35
2023-02-07T15:22:41.410Z,30.67
2023-02-07T15:25:12.743Z,29.90
2023-02-07T15:27:39.106Z,27.83
2023-02-07T15:30:08.340Z,35.50
2023-02-07T15:32:41.475Z,33.95
2023-02-07T15:35:19.527Z,28.33
2023-02-07T15:37:48.908Z,31.40
2023-02-07T15:40:16.498Z,30.33
2023-02-07T15:43:09.232Z,34.15
2023-02-07T15:45:35.647Z,26.60
2023-02-07T15:48:03.894Z,30.00
2023-02-07T15:50:30.862Z,29.30
2023-02-07T15:52:58.728Z,29.02
2023-02-07T15:55:41.800Z,33.45
2023-02-07T15:58:16.411Z,31.80
2023-02-07T16:00:42.879Z,30.10
2023-02-07T16:03:20.350Z,32.35
2023-02-07T16:05:47.278Z,27.58
2023-02-07T16:08:31.836Z,29.65
2023-02-07T16:11:15.048Z,27.13
2023-02-07T16:13:45.515Z,29.83
2023-02-07T16:16:25.499Z,29.65
2023-02-07T16:18:52.564Z,27.27
2023-02-07T16:21:21.059Z,24.05
2023-02-07T16:23:48.541Z,23.67
2023-02-07T16:26:17.221Z,19.25
2023-02-07T16:28:44.103Z,27.63
2023-02-07T16:31:10.566Z,26.35
2023-02-07T16:33:39.831Z,23.60
2023-02-07T16:36:06.521Z,25.80
2023-02-07T16:38:32.867Z,23.17
2023-02-07T16:41:00.207Z,22.35
2023-02-07T16:43:37.207Z,23.25
2023-02-07T16:46:04.372Z,22.73
2023-02-07T16:48:30.781Z,17.88
2023-02-07T16:50:58.282Z,22.15
2023-02-07T16:53:25.413Z,19.98
2023-02-07T16:55:52.632Z,18.52
2023-02-07T16:58:25.197Z,23.02
2023-02-07T17:00:51.753Z,20.02
2023-02-07T17:03:18.324Z,19.45
2023-02-07T17:05:44.639Z,22.80
2023-02-07T17:08:14.181Z,22.58
2023-02-07T17:10:51.053Z,20.45
2023-02-07T17:13:19.541Z,21.15
2023-02-07T17:15:46.312Z,18.58
2023-02-07T17:18:12.969Z,24.33
2023-02-07T17:20:39.658Z,23.63
2023-02-07T17:23:06.242Z,20.38
2023-02-07T17:25:32.981Z,17.85
2023-02-07T17:27:59.718Z,18.52
2023-02-07T17:30:32.196Z,19.20
2023-02-07T17:32:58.634Z,18.45
2023-02-07T17:35:25.011Z,20.05
2023-02-07T17:37:51.479Z,21.48
2023-02-07T17:40:25.809Z,22.60
2023-02-07T17:42:52.410Z,19.83
2023-02-07T17:45:19.026Z,18.63
2023-02-07T17:47:45.462Z,23.30
2023-02-07T17:50:15.894Z,27.08
2023-02-07T17:52:42.278Z,28.20
2023-02-07T17:55:08.633Z,30.20
2023-02-07T17:57:35.312Z,44.42
2023-02-07T18:00:01.811Z,41.72
2023-02-07T18:02:28.221Z,34.70
2023-02-07T18:04:54.656Z,57.63
2023-02-07T18:07:20.972Z,62.95
2023-02-07T18:09:47.367Z,59.42
2023-02-07T18:12:14.057Z,65.63
2023-02-07T18:14:40.413Z,59.55
2023-02-07T18:17:06.810Z,48.17
2023-02-07T18:19:33.280Z,46.35
2023-02-07T18:21:59.790Z,37.13
2023-02-07T18:24:26.127Z,30.45
2023-02-07T18:26:52.812Z,27.70
2023-02-07T18:29:19.960Z,32.05
2023-02-07T18:31:46.448Z,42.10
2023-02-07T18:34:12.801Z,28.55
2023-02-07T18:36:41.804Z,27.75
2023-02-07T18:39:09.087Z,24.52
2023-02-07T18:41:35.539Z,26.95
2023-02-07T18:44:03.064Z,23.55
2023-02-07T18:46:29.882Z,22.55
2023-02-07T18:48:57.022Z,21.08
2023-02-07T18:51:24.107Z,20.42
2023-02-07T18:53:51.020Z,19.92
2023-02-07T18:56:19.371Z,21.90
2023-02-07T18:58:46.777Z,20.00
2023-02-07T19:01:19.187Z,17.55
2023-02-07T19:03:47.086Z,24.27
2023-02-07T19:06:13.832Z,18.13
2023-02-07T19:08:40.830Z,22.80
2023-02-07T19:11:08.197Z,21.50
2023-02-07T19:13:35.188Z,17.60
2023-02-07T19:16:02.649Z,20.65
2023-02-07T19:18:29.393Z,19.52
2023-02-07T19:20:55.941Z,22.70
2023-02-07T19:23:22.335Z,24.42
2023-02-07T19:25:49.023Z,22.27
2023-02-07T19:28:15.657Z,22.10
2023-02-07T19:30:42.897Z,23.02
2023-02-07T19:33:09.399Z,16.98
2023-02-07T19:35:35.763Z,15.68
2023-02-07T19:38:02.110Z,19.08
2023-02-07T19:40:28.711Z,22.25
2023-02-07T19:42:55.083Z,22.75
2023-02-07T19:45:21.589Z,16.90
2023-02-07T19:47:47.986Z,23.10
2023-02-07T19:50:15.490Z,19.02
2023-02-07T19:52:41.919Z,23.52
2023-02-07T19:55:08.401Z,23.13
2023-02-07T19:57:35.242Z,18.75
2023-02-07T20:00:01.983Z,18.42
2023-02-07T20:02:28.443Z,18.90
2023-02-07T20:04:54.915Z,19.13
2023-02-07T20:07:21.625Z,18.50
2023-02-07T20:09:48.059Z,16.00
2023-02-07T20:12:14.630Z,16.55
2023-02-07T20:14:41.022Z,16.70
2023-02-07T20:17:07.530Z,24.08
2023-02-07T20:19:38.089Z,21.92
2023-02-07T20:22:04.494Z,18.40
2023-02-07T20:24:31.136Z,21.55
2023-02-07T20:26:57.574Z,18.75
2023-02-07T20:29:23.915Z,21.50
2023-02-07T20:31:50.446Z,18.15
2023-02-07T20:34:17.042Z,33.55
2023-02-07T20:36:43.833Z,29.10
2023-02-07T20:39:14.875Z,84.95
2023-02-07T20:41:41.811Z,85.85
2023-02-07T20:44:12.766Z,36.75
2023-02-07T20:46:40.893Z,40.30
2023-02-07T20:49:09.264Z,32.47
2023-02-07T20:51:35.889Z,100.32
2023-02-07T20:54:03.091Z,51.08
2023-02-07T20:56:29.894Z,44.17
2023-02-07T20:58:59.917Z,89.65
2023-02-07T21:01:27.887Z,121.05
2023-02-07T21:03:56.201Z,63.03
2023-02-07T21:06:24.005Z,78.68
2023-02-07T21:08:53.332Z,96.63
2023-02-07T21:11:20.092Z,69.40
2023-02-07T21:13:51.086Z,69.68
2023-02-07T21:16:20.316Z,124.45
2023-02-07T21:18:47.894Z,71.80
2023-02-07T21:21:15.313Z,37.22
2023-02-07T21:23:42.431Z,23.75
2023-02-07T21:26:10.236Z,27.30
2023-02-07T21:28:37.119Z,32.47
2023-02-07T21:31:04.637Z,48.25
2023-02-07T21:33:31.110Z,29.15
2023-02-07T21:36:10.194Z,30.35
2023-02-07T21:38:37.633Z,25.55
2023-02-07T21:41:08.216Z,29.05
2023-02-07T21:43:35.261Z,24.60
2023-02-07T21:46:06.584Z,23.70
2023-02-07T21:48:35.816Z,21.80
2023-02-07T21:51:12.468Z,24.65
2023-02-07T21:53:39.112Z,23.83
2023-02-07T21:56:07.133Z,24.63
2023-02-07T21:58:33.613Z,23.75
2023-02-07T22:01:07.846Z,24.30
2023-02-07T22:03:35.313Z,26.27
2023-02-07T22:06:01.875Z,26.90
2023-02-07T22:08:28.295Z,23.80
2023-02-07T22:10:54.665Z,24.45
2023-02-07T22:13:21.019Z,29.25
2023-02-07T22:15:51.470Z,27.27
2023-02-07T22:18:17.874Z,29.77
2023-02-07T22:20:44.232Z,24.90
2023-02-07T22:23:10.578Z,24.52
2023-02-07T22:25:40.936Z,29.05
2023-02-07T22:28:07.863Z,24.30
2023-02-07T22:30:38.157Z,27.77
2023-02-07T22:33:05.992Z,32.35
2023-02-07T22:35:39.360Z,24.58
2023-02-07T22:38:05.996Z,28.52
2023-02-07T22:40:36.487Z,31.67
2023-02-07T22:43:03.664Z,30.92
2023-02-07T22:45:31.146Z,31.65
2023-02-07T22:47:57.564Z,28.25
2023-02-07T22:50:23.963Z,26.67
2023-02-07T22:52:50.702Z,24.25
2023-02-07T22:55:17.031Z,27.70
2023-02-07T22:57:43.481Z,27.38
2023-02-07T23:00:10.749Z,29.25
2023-02-07T23:02:37.499Z,29.73
2023-02-07T23:05:04.450Z,23.95
2023-02-07T23:07:31.050Z,26.38
2023-02-07T23:09:57.395Z,31.48
2023-02-07T23:12:23.761Z,28.92
2023-02-07T23:14:50.074Z,30.17
2023-02-07T23:17:16.478Z,27.23
2023-02-07T23:19:42.922Z,29.15
2023-02-07T23:22:09.344Z,29.30
2023-02-07T23:24:35.665Z,31.10
2023-02-07T23:27:02.292Z,29.02
2023-02-07T23:29:28.895Z,30.38
2023-02-07T23:31:55.263Z,25.42
2023-02-07T23:34:21.661Z,24.73
2023-02-07T23:36:49.040Z,27.98
2023-02-07T23:39:15.448Z,33.00
2023-02-07T23:41:41.790Z,25.25
2023-02-07T23:44:08.249Z,27.90
2023-02-07T23:46:34.921Z,29.80
2023-02-07T23:49:01.677Z,32.17
2023-02-07T23:51:28.275Z,35.17
2023-02-07T23:53:54.727Z,29.10
2023-02-07T23:56:22.093Z,34.33
2023-02-07T23:58:49.060Z,39.80
